createdAt,value
2023-07-08T00:03:09.119Z,44
2023-07-08T00:15:09.026Z,44
2023-07-08T00:27:08.999Z,44
2023-07-08T00:39:08.920Z,44
2023-07-08T00:51:09.126Z,44
2023-07-08T01:03:09.116Z,44
2023-07-08T01:15:09.039Z,44
2023-07-08T01:27:08.963Z,44
2023-07-08T01:39:09.143Z,44
2023-07-08T01:51:09.069Z,44
2023-07-08T02:03:09.049Z,46
2023-07-08T02:15:09.281Z,46
2023-07-08T02:27:09.163Z,46
2023-07-08T02:39:09.098Z,46
2023-07-08T02:51:09.071Z,46
2023-07-08T03:03:09.284Z,46
2023-07-08T03:15:09.241Z,46
2023-07-08T03:27:09.156Z,46
2023-07-08T03:39:09.115Z,46
2023-07-08T03:51:09.235Z,46
2023-07-08T04:03:09.283Z,46
2023-07-08T04:15:09.187Z,46
2023-07-08T04:27:09.345Z,44.5
2023-07-08T04:39:09.279Z,44.5
2023-07-08T04:51:09.250Z,44.5
2023-07-08T05:03:09.182Z,44.5
2023-07-08T05:15:09.394Z,44.5
2023-07-08T05:27:09.303Z,44.5
2023-07-08T05:39:09.298Z,44.5
2023-07-08T05:51:09.217Z,44.5
2023-07-08T06:03:09.427Z,42.5
2023-07-08T06:15:09.349Z,42.5
2023-07-08T06:27:09.307Z,42.5
2023-07-08T06:39:09.486Z,42.5
2023-07-08T06:51:09.432Z,40.5
2023-07-08T07:03:09.407Z,40.5
2023-07-08T07:15:09.404Z,38.5
2023-07-08T07:27:09.484Z,33.5
2023-07-08T07:39:09.461Z,36
2023-07-08T07:51:09.395Z,38.5
2023-07-08T08:03:09.412Z,40
2023-07-08T08:15:09.535Z,41
2023-07-08T08:27:09.485Z,42
2023-07-08T08:39:09.422Z,40.5
2023-07-08T08:51:09.641Z,38.5
2023-07-08T09:03:09.713Z,33
2023-07-08T09:15:09.551Z,38
2023-07-08T09:27:09.472Z,40
2023-07-08T09:39:09.634Z,40
2023-07-08T09:51:09.598Z,40
2023-07-08T10:03:09.588Z,38.5
2023-07-08T10:15:09.528Z,39.5
2023-07-08T10:27:09.665Z,39.5
2023-07-08T10:39:09.579Z,38.5
2023-07-08T10:51:09.577Z,39.5
2023-07-08T11:03:09.801Z,40
2023-07-08T11:15:09.965Z,40
2023-07-08T11:27:09.706Z,40
2023-07-08T11:39:09.618Z,38.5
2023-07-08T11:51:09.802Z,40
2023-07-08T12:03:09.765Z,40
2023-07-08T12:15:09.653Z,39.5
2023-07-08T12:27:09.842Z,40
2023-07-08T12:39:09.760Z,38.5
2023-07-08T12:51:09.763Z,40
2023-07-08T13:03:09.761Z,40
2023-07-08T13:15:09.882Z,40
2023-07-08T13:27:09.820Z,40
2023-07-08T13:39:09.824Z,42
2023-07-08T13:51:09.749Z,42
2023-07-08T14:03:09.998Z,43
2023-07-08T14:15:09.841Z,44
2023-07-08T14:27:09.826Z,45
2023-07-08T14:39:09.767Z,46
2023-07-08T16:03:00.463Z,79
2023-07-08T16:15:00.322Z,76
2023-07-08T16:27:00.258Z,69
2023-07-08T16:39:01.662Z,70.5
2023-07-08T16:51:00.579Z,72.5
2023-07-08T17:15:00.364Z,79
2023-07-08T17:27:00.216Z,75.5
2023-07-08T17:39:00.445Z,73.5
2023-07-08T17:51:00.313Z,74
2023-07-08T18:03:00.509Z,73
2023-07-08T18:15:00.405Z,69
2023-07-08T18:27:00.397Z,71.5
2023-07-08T18:39:00.327Z,70.5
2023-07-08T18:51:00.688Z,69.5
2023-07-08T19:03:00.480Z,72
2023-07-08T19:15:00.418Z,72
2023-07-08T19:27:00.361Z,73
2023-07-08T19:39:00.638Z,73.5
2023-07-08T19:51:00.500Z,74.5
2023-07-08T20:03:00.608Z,76.5
2023-07-08T20:15:00.586Z,77
2023-07-08T20:27:01.433Z,79.5
2023-07-08T20:39:00.497Z,79.5
2023-07-08T20:51:00.556Z,84
2023-07-08T21:03:00.800Z,89
2023-07-08T21:15:00.609Z,91.5
2023-07-08T21:27:00.544Z,92.5
2023-07-08T21:39:00.552Z,98
2023-07-08T21:51:00.681Z,98
2023-07-08T22:03:00.668Z,98
2023-07-08T22:15:00.577Z,95
2023-07-08T22:27:00.552Z,92.5
2023-07-08T22:39:00.722Z,92
2023-07-08T22:51:00.694Z,89
2023-07-08T23:03:00.653Z,86.5
2023-07-08T23:15:00.787Z,86.5
2023-07-08T23:27:00.730Z,82.5
2023-07-08T23:39:00.798Z,79.5
2023-07-08T23:51:00.665Z,79.5
